sensor_id;sensor_type;location;lat;lon;timestamp;temperature;humidity
79494;SHT31;68951;53.130;18.104;2023-07-16T00:00:34;21.93;57.10
79494;SHT31;68951;53.130;18.104;2023-07-16T00:03:22;21.95;57.10
79494;SHT31;68951;53.130;18.104;2023-07-16T00:05:51;21.94;57.11
79494;SHT31;68951;53.130;18.104;2023-07-16T00:08:18;21.93;57.13
79494;SHT31;68951;53.130;18.104;2023-07-16T00:10:45;21.93;57.19
79494;SHT31;68951;53.130;18.104;2023-07-16T00:13:12;21.92;57.27
79494;SHT31;68951;53.130;18.104;2023-07-16T00:15:39;21.93;57.30
79494;SHT31;68951;53.130;18.104;2023-07-16T00:18:06;21.90;57.39
79494;SHT31;68951;53.130;18.104;2023-07-16T00:20:33;21.87;57.44
79494;SHT31;68951;53.130;18.104;2023-07-16T00:22:59;21.86;57.50
79494;SHT31;68951;53.130;18.104;2023-07-16T00:25:26;21.85;57.57
79494;SHT31;68951;53.130;18.104;2023-07-16T00:27:53;21.84;57.63
79494;SHT31;68951;53.130;18.104;2023-07-16T00:30:20;21.81;57.74
79494;SHT31;68951;53.130;18.104;2023-07-16T00:32:47;21.78;57.80
79494;SHT31;68951;53.130;18.104;2023-07-16T00:35:14;21.74;57.84
79494;SHT31;68951;53.130;18.104;2023-07-16T00:37:41;21.72;57.90
79494;SHT31;68951;53.130;18.104;2023-07-16T00:40:07;21.68;57.92
79494;SHT31;68951;53.130;18.104;2023-07-16T00:42:35;21.65;58.02
79494;SHT31;68951;53.130;18.104;2023-07-16T00:45:02;21.63;58.08
79494;SHT31;68951;53.130;18.104;2023-07-16T00:47:34;21.63;58.08
79494;SHT31;68951;53.130;18.104;2023-07-16T00:50:01;21.63;58.06
79494;SHT31;68951;53.130;18.104;2023-07-16T00:52:28;21.64;58.07
79494;SHT31;68951;53.130;18.104;2023-07-16T00:54:56;21.61;58.14
79494;SHT31;68951;53.130;18.104;2023-07-16T00:57:23;21.58;58.27
79494;SHT31;68951;53.130;18.104;2023-07-16T00:59:50;21.56;58.34
79494;SHT31;68951;53.130;18.104;2023-07-16T01:02:17;21.54;58.40
79494;SHT31;68951;53.130;18.104;2023-07-16T01:04:44;21.55;58.41
79494;SHT31;68951;53.130;18.104;2023-07-16T01:07:11;21.54;58.46
79494;SHT31;68951;53.130;18.104;2023-07-16T01:09:41;21.51;58.55
79494;SHT31;68951;53.130;18.104;2023-07-16T01:12:10;21.47;58.64
79494;SHT31;68951;53.130;18.104;2023-07-16T01:14:39;21.44;58.74
79494;SHT31;68951;53.130;18.104;2023-07-16T01:17:07;21.41;58.85
79494;SHT31;68951;53.130;18.104;2023-07-16T01:19:34;21.38;58.98
79494;SHT31;68951;53.130;18.104;2023-07-16T01:25:25;21.33;59.23
79494;SHT31;68951;53.130;18.104;2023-07-16T01:28:17;21.29;59.33
79494;SHT31;68951;53.130;18.104;2023-07-16T01:31:02;21.24;59.41
79494;SHT31;68951;53.130;18.104;2023-07-16T01:33:30;21.23;59.51
79494;SHT31;68951;53.130;18.104;2023-07-16T01:35:59;21.24;59.58
79494;SHT31;68951;53.130;18.104;2023-07-16T01:38:27;21.25;59.60
79494;SHT31;68951;53.130;18.104;2023-07-16T01:40:54;21.25;59.73
79494;SHT31;68951;53.130;18.104;2023-07-16T01:43:20;21.23;59.86
79494;SHT31;68951;53.130;18.104;2023-07-16T01:45:47;21.23;59.94
79494;SHT31;68951;53.130;18.104;2023-07-16T01:48:30;21.22;60.02
79494;SHT31;68951;53.130;18.104;2023-07-16T01:51:00;21.23;60.10
79494;SHT31;68951;53.130;18.104;2023-07-16T01:53:29;21.23;60.19
79494;SHT31;68951;53.130;18.104;2023-07-16T01:55:57;21.25;60.24
79494;SHT31;68951;53.130;18.104;2023-07-16T01:58:26;21.26;60.33
79494;SHT31;68951;53.130;18.104;2023-07-16T02:00:53;21.30;60.38
79494;SHT31;68951;53.130;18.104;2023-07-16T02:03:20;21.31;60.43
79494;SHT31;68951;53.130;18.104;2023-07-16T02:05:47;21.34;60.49
79494;SHT31;68951;53.130;18.104;2023-07-16T02:08:14;21.37;60.50
79494;SHT31;68951;53.130;18.104;2023-07-16T02:10:42;21.40;60.51
79494;SHT31;68951;53.130;18.104;2023-07-16T02:13:09;21.42;60.54
79494;SHT31;68951;53.130;18.104;2023-07-16T02:15:36;21.45;60.58
79494;SHT31;68951;53.130;18.104;2023-07-16T02:18:03;21.49;60.55
79494;SHT31;68951;53.130;18.104;2023-07-16T02:20:32;21.54;60.60
79494;SHT31;68951;53.130;18.104;2023-07-16T02:22:59;21.56;60.60
79494;SHT31;68951;53.130;18.104;2023-07-16T02:25:26;21.59;60.60
79494;SHT31;68951;53.130;18.104;2023-07-16T02:27:53;21.61;60.60
79494;SHT31;68951;53.130;18.104;2023-07-16T02:30:20;21.63;60.61
79494;SHT31;68951;53.130;18.104;2023-07-16T02:32:47;21.64;60.66
79494;SHT31;68951;53.130;18.104;2023-07-16T02:35:14;21.64;60.72
79494;SHT31;68951;53.130;18.104;2023-07-16T02:37:41;21.66;60.76
79494;SHT31;68951;53.130;18.104;2023-07-16T02:40:08;21.70;60.80
79494;SHT31;68951;53.130;18.104;2023-07-16T02:42:35;21.74;60.80
79494;SHT31;68951;53.130;18.104;2023-07-16T02:45:02;21.76;60.80
79494;SHT31;68951;53.130;18.104;2023-07-16T02:47:29;21.78;60.81
79494;SHT31;68951;53.130;18.104;2023-07-16T02:49:56;21.78;60.82
79494;SHT31;68951;53.130;18.104;2023-07-16T02:52:23;21.77;60.90
79494;SHT31;68951;53.130;18.104;2023-07-16T02:54:50;21.77;60.89
79494;SHT31;68951;53.130;18.104;2023-07-16T02:57:17;21.74;60.91
79494;SHT31;68951;53.130;18.104;2023-07-16T02:59:44;21.71;60.97
79494;SHT31;68951;53.130;18.104;2023-07-16T03:02:10;21.69;61.00
79494;SHT31;68951;53.130;18.104;2023-07-16T03:04:37;21.66;61.01
79494;SHT31;68951;53.130;18.104;2023-07-16T03:07:04;21.65;61.08
79494;SHT31;68951;53.130;18.104;2023-07-16T03:09:31;21.64;61.14
79494;SHT31;68951;53.130;18.104;2023-07-16T03:11:58;21.60;61.26
79494;SHT31;68951;53.130;18.104;2023-07-16T03:14:25;21.56;61.38
79494;SHT31;68951;53.130;18.104;2023-07-16T03:16:52;21.51;61.52
79494;SHT31;68951;53.130;18.104;2023-07-16T03:19:19;21.48;61.61
79494;SHT31;68951;53.130;18.104;2023-07-16T03:21:45;21.46;61.71
79494;SHT31;68951;53.130;18.104;2023-07-16T03:24:12;21.45;61.86
79494;SHT31;68951;53.130;18.104;2023-07-16T03:26:39;21.46;61.92
79494;SHT31;68951;53.130;18.104;2023-07-16T03:29:06;21.48;62.00
79494;SHT31;68951;53.130;18.104;2023-07-16T03:31:33;21.52;62.05
79494;SHT31;68951;53.130;18.104;2023-07-16T03:34:00;21.60;62.10
79494;SHT31;68951;53.130;18.104;2023-07-16T03:36:26;21.64;62.10
79494;SHT31;68951;53.130;18.104;2023-07-16T03:38:53;21.67;62.10
79494;SHT31;68951;53.130;18.104;2023-07-16T03:41:20;21.72;62.15
79494;SHT31;68951;53.130;18.104;2023-07-16T03:43:47;21.75;62.20
79494;SHT31;68951;53.130;18.104;2023-07-16T03:46:14;21.78;62.29
79494;SHT31;68951;53.130;18.104;2023-07-16T03:48:40;21.82;62.30
79494;SHT31;68951;53.130;18.104;2023-07-16T03:51:07;21.87;62.31
79494;SHT31;68951;53.130;18.104;2023-07-16T03:53:34;21.99;62.19
79494;SHT31;68951;53.130;18.104;2023-07-16T03:56:01;22.15;62.01
79494;SHT31;68951;53.130;18.104;2023-07-16T03:58:28;22.30;61.82
79494;SHT31;68951;53.130;18.104;2023-07-16T04:00:55;22.42;61.66
79494;SHT31;68951;53.130;18.104;2023-07-16T04:03:22;22.51;61.48
79494;SHT31;68951;53.130;18.104;2023-07-16T04:05:50;22.61;61.40
79494;SHT31;68951;53.130;18.104;2023-07-16T04:08:17;22.69;61.27
79494;SHT31;68951;53.130;18.104;2023-07-16T04:10:43;22.77;61.19
79494;SHT31;68951;53.130;18.104;2023-07-16T04:13:10;22.85;61.10
79494;SHT31;68951;53.130;18.104;2023-07-16T04:15:37;22.92;61.02
79494;SHT31;68951;53.130;18.104;2023-07-16T04:18:04;23.00;60.90
79494;SHT31;68951;53.130;18.104;2023-07-16T04:20:31;23.06;60.90
79494;SHT31;68951;53.130;18.104;2023-07-16T04:22:59;23.12;60.80
79494;SHT31;68951;53.130;18.104;2023-07-16T04:25:26;23.18;60.67
79494;SHT31;68951;53.130;18.104;2023-07-16T04:27:53;23.21;60.52
79494;SHT31;68951;53.130;18.104;2023-07-16T04:30:20;23.27;60.41
79494;SHT31;68951;53.130;18.104;2023-07-16T04:32:47;23.31;60.30
79494;SHT31;68951;53.130;18.104;2023-07-16T04:35:14;23.37;60.33
79494;SHT31;68951;53.130;18.104;2023-07-16T04:37:41;23.38;60.46
79494;SHT31;68951;53.130;18.104;2023-07-16T04:40:08;23.42;60.43
79494;SHT31;68951;53.130;18.104;2023-07-16T04:42:35;23.48;60.45
79494;SHT31;68951;53.130;18.104;2023-07-16T04:45:02;23.49;60.60
79494;SHT31;68951;53.130;18.104;2023-07-16T04:47:30;23.47;60.69
79494;SHT31;68951;53.130;18.104;2023-07-16T04:49:58;23.46;60.78
79494;SHT31;68951;53.130;18.104;2023-07-16T04:52:25;23.48;60.84
79494;SHT31;68951;53.130;18.104;2023-07-16T04:54:52;23.50;60.80
79494;SHT31;68951;53.130;18.104;2023-07-16T04:57:19;23.54;60.84
79494;SHT31;68951;53.130;18.104;2023-07-16T04:59:46;23.56;60.78
79494;SHT31;68951;53.130;18.104;2023-07-16T05:02:13;23.62;60.66
79494;SHT31;68951;53.130;18.104;2023-07-16T05:04:41;23.70;60.55
79494;SHT31;68951;53.130;18.104;2023-07-16T05:07:10;23.79;60.45
79494;SHT31;68951;53.130;18.104;2023-07-16T05:09:37;23.87;60.33
79494;SHT31;68951;53.130;18.104;2023-07-16T05:12:04;23.93;60.18
79494;SHT31;68951;53.130;18.104;2023-07-16T05:14:42;24.00;60.10
79494;SHT31;68951;53.130;18.104;2023-07-16T05:17:14;24.05;60.00
79494;SHT31;68951;53.130;18.104;2023-07-16T05:19:41;24.11;59.89
79494;SHT31;68951;53.130;18.104;2023-07-16T05:22:08;24.18;59.80
79494;SHT31;68951;53.130;18.104;2023-07-16T05:24:35;24.25;59.66
79494;SHT31;68951;53.130;18.104;2023-07-16T05:27:02;24.33;59.57
79494;SHT31;68951;53.130;18.104;2023-07-16T05:29:30;24.42;59.48
79494;SHT31;68951;53.130;18.104;2023-07-16T05:31:56;24.53;59.37
79494;SHT31;68951;53.130;18.104;2023-07-16T05:34:23;24.64;59.19
79494;SHT31;68951;53.130;18.104;2023-07-16T05:36:52;24.76;59.09
79494;SHT31;68951;53.130;18.104;2023-07-16T05:39:21;24.89;58.91
79494;SHT31;68951;53.130;18.104;2023-07-16T05:41:48;25.03;58.73
79494;SHT31;68951;53.130;18.104;2023-07-16T05:44:15;25.15;58.46
79494;SHT31;68951;53.130;18.104;2023-07-16T05:46:42;25.27;58.23
79494;SHT31;68951;53.130;18.104;2023-07-16T05:49:09;25.38;57.92
79494;SHT31;68951;53.130;18.104;2023-07-16T05:51:36;25.48;57.62
79494;SHT31;68951;53.130;18.104;2023-07-16T05:54:03;25.57;57.30
79494;SHT31;68951;53.130;18.104;2023-07-16T05:56:30;25.65;56.89
79494;SHT31;68951;53.130;18.104;2023-07-16T05:58:57;25.72;56.73
79494;SHT31;68951;53.130;18.104;2023-07-16T06:01:24;25.81;56.39
79494;SHT31;68951;53.130;18.104;2023-07-16T06:03:50;25.90;56.17
79494;SHT31;68951;53.130;18.104;2023-07-16T06:06:17;26.02;55.92
79494;SHT31;68951;53.130;18.104;2023-07-16T06:08:44;26.12;55.70
79494;SHT31;68951;53.130;18.104;2023-07-16T06:11:12;26.20;55.28
79494;SHT31;68951;53.130;18.104;2023-07-16T06:13:39;26.28;54.99
79494;SHT31;68951;53.130;18.104;2023-07-16T06:16:06;26.36;54.67
79494;SHT31;68951;53.130;18.104;2023-07-16T06:18:33;26.40;54.24
79494;SHT31;68951;53.130;18.104;2023-07-16T06:21:00;26.44;53.84
79494;SHT31;68951;53.130;18.104;2023-07-16T06:23:26;26.52;53.65
79494;SHT31;68951;53.130;18.104;2023-07-16T06:25:56;26.59;53.59
79494;SHT31;68951;53.130;18.104;2023-07-16T06:28:23;26.67;53.39
79494;SHT31;68951;53.130;18.104;2023-07-16T06:30:50;26.74;53.14
79494;SHT31;68951;53.130;18.104;2023-07-16T06:33:20;26.79;52.85
79494;SHT31;68951;53.130;18.104;2023-07-16T06:35:47;26.84;52.59
79494;SHT31;68951;53.130;18.104;2023-07-16T06:38:14;26.90;52.27
79494;SHT31;68951;53.130;18.104;2023-07-16T06:40:51;26.96;52.02
79494;SHT31;68951;53.130;18.104;2023-07-16T06:43:18;27.06;51.46
79494;SHT31;68951;53.130;18.104;2023-07-16T06:45:45;27.15;51.18
79494;SHT31;68951;53.130;18.104;2023-07-16T06:48:12;27.22;50.93
79494;SHT31;68951;53.130;18.104;2023-07-16T06:50:39;27.25;50.62
79494;SHT31;68951;53.130;18.104;2023-07-16T06:53:06;27.28;50.42
79494;SHT31;68951;53.130;18.104;2023-07-16T06:55:33;27.36;50.30
79494;SHT31;68951;53.130;18.104;2023-07-16T06:58:00;27.43;50.18
79494;SHT31;68951;53.130;18.104;2023-07-16T07:00:27;27.49;50.15
79494;SHT31;68951;53.130;18.104;2023-07-16T07:02:54;27.59;50.08
79494;SHT31;68951;53.130;18.104;2023-07-16T07:05:22;27.64;49.90
79494;SHT31;68951;53.130;18.104;2023-07-16T07:07:48;27.70;49.93
79494;SHT31;68951;53.130;18.104;2023-07-16T07:10:16;27.78;49.90
79494;SHT31;68951;53.130;18.104;2023-07-16T07:12:42;27.85;49.79
79494;SHT31;68951;53.130;18.104;2023-07-16T07:15:09;27.96;49.49
79494;SHT31;68951;53.130;18.104;2023-07-16T07:17:36;28.07;49.31
79494;SHT31;68951;53.130;18.104;2023-07-16T07:20:03;28.18;49.12
79494;SHT31;68951;53.130;18.104;2023-07-16T07:22:31;28.29;49.00
79494;SHT31;68951;53.130;18.104;2023-07-16T07:24:58;28.40;48.87
79494;SHT31;68951;53.130;18.104;2023-07-16T07:27:25;28.48;48.73
79494;SHT31;68951;53.130;18.104;2023-07-16T07:29:52;28.56;48.55
79494;SHT31;68951;53.130;18.104;2023-07-16T07:32:21;28.60;48.37
79494;SHT31;68951;53.130;18.104;2023-07-16T07:34:49;28.66;48.15
79494;SHT31;68951;53.130;18.104;2023-07-16T07:37:16;28.76;48.01
79494;SHT31;68951;53.130;18.104;2023-07-16T07:39:44;28.88;47.83
79494;SHT31;68951;53.130;18.104;2023-07-16T07:42:14;28.97;47.65
79494;SHT31;68951;53.130;18.104;2023-07-16T07:44:40;29.02;47.58
79494;SHT31;68951;53.130;18.104;2023-07-16T07:47:07;29.09;47.47
79494;SHT31;68951;53.130;18.104;2023-07-16T07:49:34;29.19;47.38
79494;SHT31;68951;53.130;18.104;2023-07-16T07:52:01;29.30;47.22
79494;SHT31;68951;53.130;18.104;2023-07-16T07:54:30;29.42;47.10
79494;SHT31;68951;53.130;18.104;2023-07-16T07:57:02;29.55;46.96
79494;SHT31;68951;53.130;18.104;2023-07-16T07:59:31;29.68;46.66
79494;SHT31;68951;53.130;18.104;2023-07-16T08:01:58;29.74;46.44
79494;SHT31;68951;53.130;18.104;2023-07-16T08:04:25;29.74;46.32
79494;SHT31;68951;53.130;18.104;2023-07-16T08:06:53;29.83;46.40
79494;SHT31;68951;53.130;18.104;2023-07-16T08:09:20;29.97;46.34
79494;SHT31;68951;53.130;18.104;2023-07-16T08:11:47;30.07;46.29
79494;SHT31;68951;53.130;18.104;2023-07-16T08:14:14;30.16;46.23
79494;SHT31;68951;53.130;18.104;2023-07-16T08:16:41;30.21;46.14
79494;SHT31;68951;53.130;18.104;2023-07-16T08:19:08;30.22;45.98
79494;SHT31;68951;53.130;18.104;2023-07-16T08:21:35;30.22;45.63
79494;SHT31;68951;53.130;18.104;2023-07-16T08:24:05;30.18;45.24
79494;SHT31;68951;53.130;18.104;2023-07-16T08:26:33;30.14;44.99
79494;SHT31;68951;53.130;18.104;2023-07-16T08:29:00;30.20;44.92
79494;SHT31;68951;53.130;18.104;2023-07-16T08:31:28;30.25;44.74
79494;SHT31;68951;53.130;18.104;2023-07-16T08:33:54;30.28;44.61
79494;SHT31;68951;53.130;18.104;2023-07-16T08:36:21;30.28;44.50
79494;SHT31;68951;53.130;18.104;2023-07-16T08:38:48;30.31;44.39
79494;SHT31;68951;53.130;18.104;2023-07-16T08:41:16;30.33;44.18
79494;SHT31;68951;53.130;18.104;2023-07-16T08:43:46;30.28;43.83
79494;SHT31;68951;53.130;18.104;2023-07-16T08:46:15;30.19;43.78
79494;SHT31;68951;53.130;18.104;2023-07-16T08:48:42;30.18;43.80
79494;SHT31;68951;53.130;18.104;2023-07-16T08:51:14;30.17;43.81
79494;SHT31;68951;53.130;18.104;2023-07-16T08:53:42;30.20;43.82
79494;SHT31;68951;53.130;18.104;2023-07-16T08:56:10;30.23;43.71
79494;SHT31;68951;53.130;18.104;2023-07-16T08:58:37;30.33;43.72
79494;SHT31;68951;53.130;18.104;2023-07-16T09:01:05;30.43;43.64
79494;SHT31;68951;53.130;18.104;2023-07-16T09:03:33;30.41;43.42
79494;SHT31;68951;53.130;18.104;2023-07-16T09:05:59;30.30;43.31
79494;SHT31;68951;53.130;18.104;2023-07-16T09:08:28;30.26;43.28
79494;SHT31;68951;53.130;18.104;2023-07-16T09:10:55;30.22;43.22
79494;SHT31;68951;53.130;18.104;2023-07-16T09:13:23;30.25;43.16
79494;SHT31;68951;53.130;18.104;2023-07-16T09:15:54;30.24;43.18
79494;SHT31;68951;53.130;18.104;2023-07-16T09:18:24;30.30;43.20
79494;SHT31;68951;53.130;18.104;2023-07-16T09:20:59;30.34;43.28
79494;SHT31;68951;53.130;18.104;2023-07-16T09:23:32;30.29;43.33
79494;SHT31;68951;53.130;18.104;2023-07-16T09:26:00;30.18;43.45
79494;SHT31;68951;53.130;18.104;2023-07-16T09:28:30;29.97;43.49
79494;SHT31;68951;53.130;18.104;2023-07-16T09:31:03;29.70;43.58
79494;SHT31;68951;53.130;18.104;2023-07-16T09:33:32;29.45;43.76
79494;SHT31;68951;53.130;18.104;2023-07-16T09:36:01;29.20;44.01
79494;SHT31;68951;53.130;18.104;2023-07-16T09:38:29;29.01;44.27
79494;SHT31;68951;53.130;18.104;2023-07-16T09:40:59;28.82;44.53
79494;SHT31;68951;53.130;18.104;2023-07-16T09:43:29;28.62;44.75
79494;SHT31;68951;53.130;18.104;2023-07-16T09:45:56;28.45;44.93
79494;SHT31;68951;53.130;18.104;2023-07-16T09:48:23;28.31;45.22
79494;SHT31;68951;53.130;18.104;2023-07-16T09:50:51;28.16;45.49
79494;SHT31;68951;53.130;18.104;2023-07-16T09:53:20;27.99;45.79
79494;SHT31;68951;53.130;18.104;2023-07-16T09:55:47;27.89;46.09
79494;SHT31;68951;53.130;18.104;2023-07-16T09:58:16;27.77;46.49
79494;SHT31;68951;53.130;18.104;2023-07-16T10:00:46;27.64;46.91
79494;SHT31;68951;53.130;18.104;2023-07-16T10:03:15;27.52;47.41
79494;SHT31;68951;53.130;18.104;2023-07-16T10:05:43;27.48;47.87
79494;SHT31;68951;53.130;18.104;2023-07-16T10:08:17;27.36;48.40
79494;SHT31;68951;53.130;18.104;2023-07-16T10:13:16;27.10;49.37
79494;SHT31;68951;53.130;18.104;2023-07-16T10:15:52;26.92;50.09
79494;SHT31;68951;53.130;18.104;2023-07-16T10:18:28;26.63;51.13
79494;SHT31;68951;53.130;18.104;2023-07-16T10:21:04;26.34;51.99
79494;SHT31;68951;53.130;18.104;2023-07-16T10:26:13;25.91;53.19
79494;SHT31;68951;53.130;18.104;2023-07-16T10:28:42;25.77;53.68
79494;SHT31;68951;53.130;18.104;2023-07-16T10:31:22;25.60;54.19
79494;SHT31;68951;53.130;18.104;2023-07-16T10:34:00;25.44;54.53
79494;SHT31;68951;53.130;18.104;2023-07-16T10:36:39;25.36;54.94
79494;SHT31;68951;53.130;18.104;2023-07-16T10:39:07;25.28;55.40
79494;SHT31;68951;53.130;18.104;2023-07-16T10:41:34;25.16;55.95
79494;SHT31;68951;53.130;18.104;2023-07-16T10:44:01;25.08;56.58
79494;SHT31;68951;53.130;18.104;2023-07-16T10:46:28;24.93;57.40
79494;SHT31;68951;53.130;18.104;2023-07-16T10:48:56;24.81;58.06
79494;SHT31;68951;53.130;18.104;2023-07-16T10:51:26;24.68;58.84
79494;SHT31;68951;53.130;18.104;2023-07-16T10:53:56;24.60;59.59
79494;SHT31;68951;53.130;18.104;2023-07-16T10:56:24;24.53;60.19
79494;SHT31;68951;53.130;18.104;2023-07-16T10:58:51;24.51;60.83
79494;SHT31;68951;53.130;18.104;2023-07-16T11:01:18;24.50;61.47
79494;SHT31;68951;53.130;18.104;2023-07-16T11:03:46;24.62;61.95
79494;SHT31;68951;53.130;18.104;2023-07-16T11:06:13;24.77;62.22
79494;SHT31;68951;53.130;18.104;2023-07-16T11:08:42;24.98;62.46
79494;SHT31;68951;53.130;18.104;2023-07-16T11:11:08;25.21;62.64
79494;SHT31;68951;53.130;18.104;2023-07-16T11:13:35;25.47;62.74
79494;SHT31;68951;53.130;18.104;2023-07-16T11:16:08;25.51;62.70
79494;SHT31;68951;53.130;18.104;2023-07-16T11:18:36;25.86;62.57
79494;SHT31;68951;53.130;18.104;2023-07-16T11:21:03;26.54;62.18
79494;SHT31;68951;53.130;18.104;2023-07-16T11:23:34;27.12;61.77
79494;SHT31;68951;53.130;18.104;2023-07-16T11:26:02;27.76;61.21
79494;SHT31;68951;53.130;18.104;2023-07-16T11:28:40;28.13;60.04
79494;SHT31;68951;53.130;18.104;2023-07-16T11:31:14;28.43;58.95
79494;SHT31;68951;53.130;18.104;2023-07-16T11:33:45;28.63;58.10
79494;SHT31;68951;53.130;18.104;2023-07-16T11:36:13;28.82;57.19
79494;SHT31;68951;53.130;18.104;2023-07-16T11:38:40;28.99;56.61
79494;SHT31;68951;53.130;18.104;2023-07-16T11:41:07;29.27;55.95
79494;SHT31;68951;53.130;18.104;2023-07-16T11:43:35;29.49;55.39
79494;SHT31;68951;53.130;18.104;2023-07-16T11:46:02;29.65;54.96
79494;SHT31;68951;53.130;18.104;2023-07-16T11:48:31;29.74;54.04
79494;SHT31;68951;53.130;18.104;2023-07-16T11:50:58;29.88;53.48
79494;SHT31;68951;53.130;18.104;2023-07-16T11:53:25;30.06;53.03
79494;SHT31;68951;53.130;18.104;2023-07-16T11:55:52;30.36;52.77
79494;SHT31;68951;53.130;18.104;2023-07-16T11:58:19;30.85;52.56
79494;SHT31;68951;53.130;18.104;2023-07-16T12:00:46;30.92;52.04
79494;SHT31;68951;53.130;18.104;2023-07-16T12:03:13;31.18;51.74
79494;SHT31;68951;53.130;18.104;2023-07-16T12:05:40;31.57;51.10
79494;SHT31;68951;53.130;18.104;2023-07-16T12:08:07;32.01;49.89
79494;SHT31;68951;53.130;18.104;2023-07-16T12:10:40;32.02;48.57
79494;SHT31;68951;53.130;18.104;2023-07-16T12:13:08;32.15;48.18
79494;SHT31;68951;53.130;18.104;2023-07-16T12:15:34;32.55;47.91
79494;SHT31;68951;53.130;18.104;2023-07-16T12:18:01;32.91;47.20
79494;SHT31;68951;53.130;18.104;2023-07-16T12:20:29;33.06;46.36
79494;SHT31;68951;53.130;18.104;2023-07-16T12:22:56;33.00;45.89
79494;SHT31;68951;53.130;18.104;2023-07-16T12:25:23;33.00;45.19
79494;SHT31;68951;53.130;18.104;2023-07-16T12:27:49;32.89;44.84
79494;SHT31;68951;53.130;18.104;2023-07-16T12:30:16;32.47;44.68
79494;SHT31;68951;53.130;18.104;2023-07-16T12:32:43;31.91;45.03
79494;SHT31;68951;53.130;18.104;2023-07-16T12:35:10;31.54;45.32
79494;SHT31;68951;53.130;18.104;2023-07-16T12:37:37;31.39;45.60
79494;SHT31;68951;53.130;18.104;2023-07-16T12:40:04;31.25;45.71
79494;SHT31;68951;53.130;18.104;2023-07-16T12:42:33;30.96;45.80
79494;SHT31;68951;53.130;18.104;2023-07-16T12:45:01;30.85;46.06
79494;SHT31;68951;53.130;18.104;2023-07-16T12:47:29;30.82;46.30
79494;SHT31;68951;53.130;18.104;2023-07-16T12:49:55;30.71;46.59
79494;SHT31;68951;53.130;18.104;2023-07-16T12:52:22;30.91;46.78
79494;SHT31;68951;53.130;18.104;2023-07-16T12:54:49;31.27;46.59
79494;SHT31;68951;53.130;18.104;2023-07-16T12:57:16;31.52;46.45
79494;SHT31;68951;53.130;18.104;2023-07-16T12:59:44;31.40;46.19
79494;SHT31;68951;53.130;18.104;2023-07-16T13:02:10;31.19;46.22
79494;SHT31;68951;53.130;18.104;2023-07-16T13:04:37;31.10;46.36
79494;SHT31;68951;53.130;18.104;2023-07-16T13:07:04;30.93;46.53
79494;SHT31;68951;53.130;18.104;2023-07-16T13:09:31;30.65;46.69
79494;SHT31;68951;53.130;18.104;2023-07-16T13:11:58;30.34;47.00
79494;SHT31;68951;53.130;18.104;2023-07-16T13:14:25;30.10;47.37
79494;SHT31;68951;53.130;18.104;2023-07-16T13:16:52;29.90;47.62
79494;SHT31;68951;53.130;18.104;2023-07-16T13:19:19;29.65;47.89
79494;SHT31;68951;53.130;18.104;2023-07-16T13:21:46;29.53;48.12
79494;SHT31;68951;53.130;18.104;2023-07-16T13:24:13;29.54;48.31
79494;SHT31;68951;53.130;18.104;2023-07-16T13:26:40;29.49;48.47
79494;SHT31;68951;53.130;18.104;2023-07-16T13:29:07;29.41;48.60
79494;SHT31;68951;53.130;18.104;2023-07-16T13:31:34;29.29;48.61
79494;SHT31;68951;53.130;18.104;2023-07-16T13:34:01;29.24;48.74
79494;SHT31;68951;53.130;18.104;2023-07-16T13:36:28;29.23;48.86
79494;SHT31;68951;53.130;18.104;2023-07-16T13:38:55;29.28;48.97
79494;SHT31;68951;53.130;18.104;2023-07-16T13:41:22;29.37;49.06
79494;SHT31;68951;53.130;18.104;2023-07-16T13:43:48;29.45;49.11
79494;SHT31;68951;53.130;18.104;2023-07-16T13:46:16;29.77;49.10
79494;SHT31;68951;53.130;18.104;2023-07-16T13:48:43;29.89;49.00
79494;SHT31;68951;53.130;18.104;2023-07-16T13:51:10;29.84;48.94
79494;SHT31;68951;53.130;18.104;2023-07-16T13:53:37;29.65;48.94
79494;SHT31;68951;53.130;18.104;2023-07-16T13:56:04;29.59;49.08
79494;SHT31;68951;53.130;18.104;2023-07-16T13:58:31;29.53;49.09
79494;SHT31;68951;53.130;18.104;2023-07-16T14:00:58;29.38;49.14
79494;SHT31;68951;53.130;18.104;2023-07-16T14:03:24;29.29;49.19
79494;SHT31;68951;53.130;18.104;2023-07-16T14:05:51;29.25;49.24
79494;SHT31;68951;53.130;18.104;2023-07-16T14:08:18;29.28;49.32
79494;SHT31;68951;53.130;18.104;2023-07-16T14:10:45;29.38;49.38
79494;SHT31;68951;53.130;18.104;2023-07-16T14:13:12;29.75;49.26
79494;SHT31;68951;53.130;18.104;2023-07-16T14:15:39;29.90;49.21
79494;SHT31;68951;53.130;18.104;2023-07-16T14:18:06;29.94;49.26
79494;SHT31;68951;53.130;18.104;2023-07-16T14:20:32;29.95;49.01
79494;SHT31;68951;53.130;18.104;2023-07-16T14:22:59;29.92;48.82
79494;SHT31;68951;53.130;18.104;2023-07-16T14:25:27;29.83;48.71
79494;SHT31;68951;53.130;18.104;2023-07-16T14:27:54;29.80;48.64
79494;SHT31;68951;53.130;18.104;2023-07-16T14:30:21;29.84;48.62
79494;SHT31;68951;53.130;18.104;2023-07-16T14:32:48;29.99;48.60
79494;SHT31;68951;53.130;18.104;2023-07-16T14:35:14;30.11;48.44
79494;SHT31;68951;53.130;18.104;2023-07-16T14:37:42;30.05;48.18
79494;SHT31;68951;53.130;18.104;2023-07-16T14:40:09;30.01;48.12
79494;SHT31;68951;53.130;18.104;2023-07-16T14:42:37;30.15;48.11
79494;SHT31;68951;53.130;18.104;2023-07-16T14:45:04;30.23;47.92
79494;SHT31;68951;53.130;18.104;2023-07-16T14:47:31;30.38;47.86
79494;SHT31;68951;53.130;18.104;2023-07-16T14:49:58;30.43;47.68
79494;SHT31;68951;53.130;18.104;2023-07-16T14:52:25;30.42;47.48
79494;SHT31;68951;53.130;18.104;2023-07-16T14:54:52;30.35;47.31
79494;SHT31;68951;53.130;18.104;2023-07-16T14:57:19;30.42;47.24
79494;SHT31;68951;53.130;18.104;2023-07-16T14:59:46;30.47;46.94
79494;SHT31;68951;53.130;18.104;2023-07-16T15:02:13;30.35;46.71
79494;SHT31;68951;53.130;18.104;2023-07-16T15:04:40;30.19;46.78
79494;SHT31;68951;53.130;18.104;2023-07-16T15:07:07;30.04;46.90
79494;SHT31;68951;53.130;18.104;2023-07-16T15:09:34;29.92;46.99
79494;SHT31;68951;53.130;18.104;2023-07-16T15:12:04;29.92;47.10
79494;SHT31;68951;53.130;18.104;2023-07-16T15:14:33;29.93;47.16
79494;SHT31;68951;53.130;18.104;2023-07-16T15:16:59;29.88;47.22
79494;SHT31;68951;53.130;18.104;2023-07-16T15:19:26;29.84;47.31
79494;SHT31;68951;53.130;18.104;2023-07-16T15:21:53;29.75;47.34
79494;SHT31;68951;53.130;18.104;2023-07-16T15:24:20;29.63;47.47
79494;SHT31;68951;53.130;18.104;2023-07-16T15:26:47;29.53;47.63